Terminal Aerodrome Forecast
Issued by NWS

Home | Current Version | Previous Version | Graphics & Text | Print | Product List | Glossary On
Versions: 1 2 3 4 5 6 7 8 9 10 11 12 13 14 15
000
FTUS43 KMPX 200714 AAA
TAFRWF
TAF AMD
KRWF 200714Z 2007/2106 21005KT P6SM FEW250
     FM201100 27005KT P6SM SCT250
     FM201500 34008KT P6SM FEW250
     FM210200 VRB03KT P6SM FEW250=

USA.gov is the U.S. government's official web portal to all federal, state and local government web resources and services.